Time;durP1;ratioP1;P1;durP2;ratioP2;P2;SDS_P1;SDS_P2;PMS_P1;PMS_P2;Temp;Humidity;BMP_temperature;BMP_pressure;BME280_temperature;BME280_humidity;BME280_pressure;Samples;Min_cycle;Max_cycle;Signal;HPM_P1;HPM_P2
2022/03/10 00:02:10;;;;;;;61.60;28.73;;;;;;;-146.64;100.00;41315.31;5045917;28;20047;-75
2022/03/10 00:04:36;;;;;;;60.10;30.90;;;;;;;-146.64;100.00;41229.31;5069482;28;20365;-76
2022/03/10 00:07:03;;;;;;;65.32;30.17;;;;;;;-146.64;100.00;41221.13;5035178;28;20028;-75
2022/03/10 00:09:29;;;;;;;56.63;28.67;;;;;;;-146.64;100.00;41307.13;5038817;28;20373;-75
2022/03/10 00:11:54;;;;;;;63.17;29.60;;;;;;;-146.64;100.00;41325.53;5038188;28;20525;-75
2022/03/10 00:14:20;;;;;;;60.83;29.95;;;;;;;-146.64;100.00;41262.06;5051019;28;20362;-75
2022/03/10 00:16:45;;;;;;;57.35;29.42;;;;;;;-146.64;100.00;41280.50;5053269;28;20033;-76
2022/03/10 00:19:12;;;;;;;60.97;29.40;;;;;;;-146.64;100.00;41290.75;5052121;28;20112;-75
2022/03/10 00:21:38;;;;;;;58.55;30.42;;;;;;;-146.64;100.00;41290.75;5059832;28;20127;-75
2022/03/10 00:24:04;;;;;;;56.80;29.13;;;;;;;-146.64;100.00;41311.22;5044025;28;20525;-75
2022/03/10 00:26:30;;;;;;;59.58;28.77;;;;;;;-146.64;100.00;41253.88;5055779;28;20040;-75
2022/03/10 00:28:55;;;;;;;54.67;28.55;;;;;;;-146.64;100.00;41233.41;5031691;28;20111;-75
2022/03/10 00:31:21;;;;;;;54.47;27.67;;;;;;;-146.64;100.00;41282.53;5066072;28;20060;-75
2022/03/10 00:33:46;;;;;;;57.78;28.90;;;;;;;-146.64;100.00;41311.22;5051997;28;20043;-76
2022/03/10 00:36:12;;;;;;;54.25;26.25;;;;;;;-146.64;100.00;41149.44;5047953;28;20033;-75
2022/03/10 00:38:37;;;;;;;56.00;27.05;;;;;;;-146.64;100.00;41110.56;5063968;28;20029;-75
2022/03/10 00:41:03;;;;;;;51.15;26.13;;;;;;;-146.64;100.00;41008.19;5057508;28;20058;-75
2022/03/10 00:43:28;;;;;;;51.47;27.55;;;;;;;-146.64;100.00;41081.88;5050824;28;20091;-75
2022/03/10 00:45:53;;;;;;;49.03;26.05;;;;;;;-146.64;100.00;41077.78;5053553;28;20035;-76
2022/03/10 00:48:19;;;;;;;58.17;27.83;;;;;;;-146.64;100.00;41171.97;5044513;28;20056;-76
2022/03/10 00:50:44;;;;;;;49.72;26.70;;;;;;;-146.64;100.00;41145.34;5041868;28;20110;-75
2022/03/10 00:53:11;;;;;;;54.78;26.15;;;;;;;-146.64;100.00;41128.97;5055908;28;20051;-75
2022/03/10 00:55:37;;;;;;;59.85;26.52;;;;;;;-146.64;100.00;41188.34;5052142;28;20037;-75
2022/03/10 00:58:02;;;;;;;53.95;26.23;;;;;;;-146.64;100.00;41151.50;5059504;28;20036;-76
2022/03/10 01:00:29;;;;;;;51.13;26.85;;;;;;;-146.64;100.00;41098.25;5054010;28;20039;-75
2022/03/10 01:02:55;;;;;;;54.22;25.80;;;;;;;-146.64;100.00;41174.03;5050158;28;20064;-76
2022/03/10 01:05:21;;;;;;;54.65;25.40;;;;;;;-146.64;100.00;41133.06;5066326;28;20399;-76
2022/03/10 01:07:46;;;;;;;51.22;25.92;;;;;;;-146.64;100.00;41155.59;5051140;28;20037;-76
2022/03/10 01:10:14;;;;;;;57.90;25.85;;;;;;;-146.64;100.00;41214.97;5051680;28;20079;-76
2022/03/10 01:12:42;;;;;;;51.05;26.17;;;;;;;-146.64;100.00;41196.53;5057569;28;20024;-76
2022/03/10 01:15:11;;;;;;;50.10;26.17;;;;;;;-146.64;100.00;41212.94;5060748;28;20039;-76
2022/03/10 01:17:37;;;;;;;47.30;24.95;;;;;;;-146.64;100.00;41090.06;5057473;28;20432;-76
2022/03/10 01:20:03;;;;;;;53.97;26.25;;;;;;;-146.64;100.00;41110.56;5068055;28;20036;-76
2022/03/10 01:22:29;;;;;;;53.00;26.52;;;;;;;-146.64;100.00;41184.25;5050687;28;20063;-76
2022/03/10 01:24:54;;;;;;;50.92;24.77;;;;;;;-146.64;100.00;41096.22;5061182;28;20029;-76
2022/03/10 01:27:20;;;;;;;48.83;25.77;;;;;;;-146.64;100.00;41180.16;5058753;28;20099;-77
2022/03/10 01:29:45;;;;;;;49.05;26.05;;;;;;;-146.64;100.00;41294.84;5050922;28;20051;-76
2022/03/10 01:32:11;;;;;;;51.28;25.50;;;;;;;-146.64;100.00;41245.69;5041281;28;20119;-76
2022/03/10 01:34:37;;;;;;;38.80;19.93;;;;;;;-146.64;100.00;41380.84;5055867;28;20016;-77
2022/03/10 01:37:02;;;;;;;53.15;25.98;;;;;;;-146.64;100.00;41434.06;5053991;28;20288;-76
2022/03/10 01:39:27;;;;;;;51.60;25.63;;;;;;;-146.64;100.00;41559.00;5050613;28;20024;-76
2022/03/10 01:41:53;;;;;;;61.13;25.98;;;;;;;-146.64;100.00;41577.41;5064532;28;20037;-76
2022/03/10 01:44:20;;;;;;;49.83;24.70;;;;;;;-146.64;100.00;41765.81;5052673;28;20037;-76
2022/03/10 01:46:46;;;;;;;59.97;28.10;;;;;;;-146.64;100.00;41688.00;5052124;28;20379;-76
2022/03/10 01:49:11;;;;;;;54.50;25.40;;;;;;;-146.64;100.00;41593.81;5030678;28;20147;-76
2022/03/10 01:51:37;;;;;;;47.08;25.52;;;;;;;-146.64;100.00;41567.19;5055871;28;20028;-77
2022/03/10 01:54:04;;;;;;;53.35;25.73;;;;;;;-146.64;100.00;41477.06;5038917;28;20029;-76
2022/03/10 01:56:31;;;;;;;50.65;27.08;;;;;;;-146.64;100.00;41597.91;5060245;28;20025;-76
2022/03/10 01:58:56;;;;;;;47.75;25.85;;;;;;;-146.64;100.00;41540.56;5053059;28;20032;-77
2022/03/10 02:01:24;;;;;;;52.38;26.25;;;;;;;-146.64;100.00;41626.56;5067443;28;20036;-77
2022/03/10 02:03:50;;;;;;;56.50;28.13;;;;;;;-146.64;100.00;41708.47;5054537;28;20045;-78
2022/03/10 02:06:15;;;;;;;50.92;25.88;;;;;;;-146.64;100.00;41714.63;5058794;28;20028;-77
2022/03/10 02:11:26;;;;;;;52.58;25.77;;;;;;;-146.64;100.00;41802.69;5054995;28;20079;-77
2022/03/10 02:13:51;;;;;;;54.70;25.20;;;;;;;-146.64;100.00;41851.81;5040275;28;20048;-77
2022/03/10 02:19:03;;;;;;;50.17;25.55;;;;;;;-146.64;100.00;42105.78;5063311;28;20056;-77
2022/03/10 02:21:28;;;;;;;43.97;24.13;;;;;;;-146.64;100.00;42124.22;5065260;28;20048;-78
2022/03/10 02:23:54;;;;;;;50.22;25.98;;;;;;;-146.64;100.00;42263.47;5058856;28;20167;-78
2022/03/10 02:26:19;;;;;;;53.22;25.50;;;;;;;-146.64;100.00;42363.84;5075950;28;20534;-77
2022/03/10 02:28:45;;;;;;;52.60;25.73;;;;;;;-146.64;100.00;42386.38;5039353;28;20116;-77
2022/03/10 02:31:11;;;;;;;53.72;25.17;;;;;;;-146.64;100.00;42548.19;5044229;28;20024;-77
2022/03/10 02:33:37;;;;;;;54.20;26.75;;;;;;;-146.64;100.00;42703.84;5056474;28;20028;-77
2022/03/10 02:36:03;;;;;;;56.40;26.55;;;;;;;-146.64;100.00;42761.22;5057251;28;20029;-78
2022/03/10 02:38:29;;;;;;;55.88;26.40;;;;;;;-146.64;100.00;42548.19;5059222;28;20017;-78
2022/03/10 02:40:55;;;;;;;48.97;25.88;;;;;;;-146.64;100.00;42712.03;5056447;28;20041;-78
2022/03/10 02:43:21;;;;;;;52.25;25.17;;;;;;;-146.64;100.00;42851.34;5054394;28;20037;-78
2022/03/10 02:45:47;;;;;;;46.72;25.45;;;;;;;-146.64;100.00;42718.19;5055912;28;20032;-78
2022/03/10 02:48:13;;;;;;;51.33;26.80;;;;;;;-146.64;100.00;43379.88;5058051;28;20032;-78
2022/03/10 02:50:39;;;;;;;49.55;26.48;;;;;;;-146.64;100.00;43086.91;5039035;28;20116;-77
2022/03/10 02:53:05;;;;;;;52.65;26.63;;;;;;;-146.64;100.00;43236.47;5057010;28;20491;-78
2022/03/10 02:55:31;;;;;;;53.95;26.40;;;;;;;-146.64;100.00;43592.94;5060520;28;20048;-78
2022/03/10 02:57:57;;;;;;;49.42;26.50;;;;;;;-146.64;100.00;43588.84;5038425;28;20037;-78
2022/03/10 03:00:23;;;;;;;55.30;26.17;;;;;;;-146.64;100.00;44236.31;5069536;28;20025;-77
2022/03/10 03:02:48;;;;;;;52.22;26.33;;;;;;;-146.64;100.00;44027.31;5034931;28;20117;-78
2022/03/10 03:05:14;;;;;;;53.38;26.10;;;;;;;-146.64;100.00;44449.44;5048913;28;20326;-77
2022/03/10 03:07:40;;;;;;;46.38;25.45;;;;;;;-146.64;100.00;44359.28;5044369;28;20423;-77
2022/03/10 03:10:07;;;;;;;51.45;26.90;;;;;;;-146.64;100.00;44982.28;5062548;28;20071;-78
2022/03/10 03:12:33;;;;;;;53.88;24.73;;;;;;;-146.64;100.00;44970.00;5056317;28;20037;-77
2022/03/10 03:14:59;;;;;;;54.63;26.97;;;;;;;-146.64;100.00;44469.94;5055411;28;20037;-77
2022/03/10 03:17:25;;;;;;;46.20;25.50;;;;;;;-146.64;100.00;44670.78;5057494;28;20430;-78
2022/03/10 03:19:53;;;;;;;47.22;25.33;;;;;;;-146.64;100.00;45211.84;5050408;28;20025;-77
2022/03/10 03:22:19;;;;;;;46.17;24.48;;;;;;;-146.64;100.00;46081.00;5057693;28;20033;-78
2022/03/10 03:24:45;;;;;;;53.00;26.80;;;;;;;-146.64;100.00;46228.63;5071455;28;20081;-78
2022/03/10 03:27:12;;;;;;;54.22;26.70;;;;;;;-146.64;100.00;48115.25;5047048;28;20039;-77
2022/03/10 03:29:37;;;;;;;48.33;25.73;;;;;;;-146.64;100.00;47733.75;5047276;28;20082;-77
2022/03/10 03:32:03;;;;;;;47.78;26.13;;;;;;;-146.64;100.00;47969.63;5045450;28;20025;-77
2022/03/10 03:34:28;;;;;;;47.50;26.25;;;;;;;-146.64;100.00;48837.31;5064740;28;20025;-77
2022/03/10 03:36:54;;;;;;;48.20;24.70;;;;;;;-146.64;100.00;49235.34;5057226;28;20035;-78
2022/03/10 03:39:21;;;;;;;50.85;25.35;;;;;;;-146.64;100.00;49237.41;5037912;28;20044;-77
2022/03/10 03:41:46;;;;;;;53.10;26.98;;;;;;;-146.64;100.00;48418.81;5054086;28;20468;-78
2022/03/10 03:44:12;;;;;;;49.58;25.13;;;;;;;-146.64;100.00;47865.00;5043553;28;20072;-77
2022/03/10 03:46:39;;;;;;;52.30;26.50;;;;;;;-146.64;100.00;49610.84;5047482;28;20029;-77
2022/03/10 03:49:05;;;;;;;51.53;27.02;;;;;;;-146.64;100.00;56032.50;5046905;28;20101;-77
2022/03/10 03:51:31;;;;;;;55.60;27.27;;;;;;;-146.64;100.00;60832.41;5036821;28;20135;-77
2022/03/10 03:53:57;;;;;;;53.83;26.55;;;;;;;-146.64;100.00;63467.22;5067914;28;20502;-77
2022/03/10 03:56:23;;;;;;;58.75;26.15;;;;;;;-146.64;100.00;62413.09;5045894;28;20029;-77
2022/03/10 03:58:48;;;;;;;54.85;28.67;;;;;;;-146.64;100.00;66367.56;5053282;28;20417;-78
2022/03/10 04:01:14;;;;;;;61.33;28.40;;;;;;;-146.64;100.00;64785.31;5063265;28;20044;-79
2022/03/10 04:03:40;;;;;;;58.97;27.55;;;;;;;-146.64;100.00;62676.59;5054349;28;20087;-77
2022/03/10 04:06:06;;;;;;;54.25;28.88;;;;;;;-146.64;100.00;60569.03;5058334;28;20031;-78
2022/03/10 04:08:32;;;;;;;53.63;29.60;;;;;;;-146.64;100.00;60305.66;5050922;28;20036;-77
2022/03/10 04:10:57;;;;;;;58.38;29.30;;;;;;;-146.64;100.00;59515.66;5058490;28;20044;-77
2022/03/10 04:13:23;;;;;;;53.50;28.88;;;;;;;-146.64;100.00;60042.31;5063044;28;20480;-77
2022/03/10 04:15:50;;;;;;;54.25;27.30;;;;;;;-146.64;100.00;58989.09;5038328;28;20092;-77
2022/03/10 04:18:20;;;;;;;53.08;27.65;;;;;;;-146.64;100.00;60569.03;5050190;28;20492;-77
2022/03/10 04:20:47;;;;;;;52.33;27.05;;;;;;;-146.64;100.00;60569.03;5039026;28;20025;-77
2022/03/10 04:23:13;;;;;;;54.85;28.35;;;;;;;-146.64;100.00;60832.41;5037502;28;20415;-77
2022/03/10 04:25:38;;;;;;;61.40;26.98;;;;;;;-146.64;100.00;62940.13;5039223;28;20041;-79
2022/03/10 04:28:04;;;;;;;53.08;27.38;;;;;;;-146.64;100.00;65048.97;5057679;28;20495;-77
2022/03/10 04:30:33;;;;;;;54.03;27.23;;;;;;;-146.64;100.00;64521.66;5040264;28;20025;-77
2022/03/10 04:32:58;;;;;;;53.00;27.52;;;;;;;-146.64;100.00;66631.31;5053035;28;20112;-78
2022/03/10 04:35:24;;;;;;;59.10;27.95;;;;;;;-146.64;100.00;66895.09;5045271;28;20075;-77
2022/03/10 04:37:50;;;;;;;49.47;25.90;;;;;;;-146.64;100.00;64521.66;5037499;28;20468;-78
2022/03/10 04:40:16;;;;;;;49.58;26.33;;;;;;;-146.64;100.00;61886.13;5041779;28;20348;-77
2022/03/10 04:42:42;;;;;;;55.65;28.02;;;;;;;-146.64;100.00;67158.91;5054201;28;20044;-77
2022/03/10 04:45:08;;;;;;;50.72;26.92;;;;;;;-146.64;100.00;66631.31;5072064;28;20036;-77
2022/03/10 04:47:35;;;;;;;56.47;28.52;;;;;;;-146.64;100.00;65840.06;5048106;28;20024;-78
2022/03/10 04:50:00;;;;;;;56.65;29.75;;;;;;;-146.64;100.00;68478.19;5050503;28;20476;-77
2022/03/10 04:52:26;;;;;;;56.55;29.98;;;;;;;-146.64;100.00;72174.50;5050377;28;20032;-77
2022/03/10 04:54:52;;;;;;;43.20;22.93;;;;;;;-146.64;100.00;71646.25;5060332;28;20044;-78
2022/03/10 04:57:18;;;;;;;58.95;28.77;;;;;;;-146.64;100.00;73759.69;5056539;28;20040;-78
2022/03/10 04:59:43;;;;;;;52.72;27.15;;;;;;;-146.64;100.00;74288.22;5044752;28;20036;-77
2022/03/10 05:02:09;;;;;;;51.63;27.90;;;;;;;-146.64;100.00;74552.53;5054992;28;20105;-79
2022/03/10 05:04:34;;;;;;;53.90;28.98;;;;;;;-146.64;100.00;72438.66;5067792;28;20025;-78
2022/03/10 05:07:00;;;;;;;53.30;29.30;;;;;;;-146.64;100.00;71910.38;5036599;28;20029;-77
2022/03/10 05:09:25;;;;;;;50.33;27.38;;;;;;;-146.64;100.00;73759.69;5057122;28;20104;-77
2022/03/10 05:11:50;;;;;;;63.40;29.00;;;;;;;-146.64;100.00;73495.47;5054197;28;20060;-76
2022/03/10 05:14:16;;;;;;;61.55;29.00;;;;;;;-146.64;100.00;72438.66;5054906;28;20084;-77
2022/03/10 05:16:41;;;;;;;53.80;27.98;;;;;;;-146.64;100.00;73495.47;5036859;28;20025;-77
2022/03/10 05:19:07;;;;;;;54.75;28.38;;;;;;;-146.64;100.00;71910.38;5057156;28;20134;-76
2022/03/10 05:21:32;;;;;;;54.25;28.38;;;;;;;-146.64;100.00;74816.84;5056596;28;20400;-76
2022/03/10 05:23:57;;;;;;;56.80;28.08;;;;;;;-146.64;100.00;72438.66;5050475;28;20029;-77
2022/03/10 05:26:23;;;;;;;56.65;27.42;;;;;;;-146.64;100.00;72174.50;5048006;28;20060;-77
2022/03/10 05:28:48;;;;;;;51.70;28.60;;;;;;;-146.64;100.00;75345.50;5033946;28;20036;-77
2022/03/10 05:31:14;;;;;;;54.83;29.75;;;;;;;-146.64;100.00;76931.94;5038444;28;20446;-78
2022/03/10 05:33:39;;;;;;;51.72;28.35;;;;;;;-146.64;100.00;77196.41;5053201;28;20025;-77
2022/03/10 05:36:04;;;;;;;53.63;28.17;;;;;;;-146.64;100.00;76667.50;5063194;28;20020;-77
2022/03/10 05:38:30;;;;;;;56.10;28.20;;;;;;;-146.64;100.00;77725.41;5060579;28;20025;-77
2022/03/10 05:40:55;;;;;;;56.60;28.27;;;;;;;-146.64;100.00;77460.91;5053837;28;20044;-78
2022/03/10 05:43:22;;;;;;;51.10;27.85;;;;;;;-146.64;100.00;77460.91;5056656;28;20103;-77
2022/03/10 05:45:47;;;;;;;52.03;28.63;;;;;;;-146.64;100.00;78783.59;5046331;28;20252;-77
2022/03/10 05:48:13;;;;;;;53.60;29.00;;;;;;;-146.64;100.00;77725.41;5027764;28;20087;-77
2022/03/10 05:50:38;;;;;;;53.42;28.23;;;;;;;-146.64;100.00;79312.78;5042742;28;20028;-77
2022/03/10 05:53:05;;;;;;;55.15;28.48;;;;;;;-146.64;100.00;80371.41;5051767;28;20133;-77
2022/03/10 05:55:31;;;;;;;52.45;27.55;;;;;;;-146.64;100.00;80371.41;5065564;28;20017;-77
2022/03/10 05:57:56;;;;;;;58.17;29.05;;;;;;;-146.64;100.00;80900.81;5042031;28;20031;-77
2022/03/10 06:00:23;;;;;;;54.42;28.27;;;;;;;-146.64;100.00;82224.63;5052718;28;20068;-77
2022/03/10 06:02:49;;;;;;;;;;;;;;;-146.64;100.00;83813.78;5037576;28;20057;-77
2022/03/10 06:05:14;;;;;;;52.85;26.77;;;;;;;-146.64;100.00;82224.63;5030467;28;20024;-79
2022/03/10 06:07:40;;;;;;;50.40;27.95;;;;;;;-146.64;100.00;80636.09;5059703;28;20029;-77
2022/03/10 06:10:06;;;;;;;54.72;27.30;;;;;;;-146.64;100.00;81165.53;5059198;28;20025;-79
2022/03/10 06:12:32;;;;;;;52.30;27.30;;;;;;;-146.64;100.00;75609.88;5053407;28;20024;-77
2022/03/10 06:15:01;;;;;;;57.80;28.45;;;;;;;-146.64;100.00;76931.94;5044296;28;20502;-77
2022/03/10 06:17:27;;;;;;;52.35;26.63;;;;;;;-146.64;100.00;75609.88;5031072;28;20028;-77
2022/03/10 06:19:53;;;;;;;39.93;21.37;;;;;;;-146.64;100.00;75609.88;5056179;28;20499;-77
2022/03/10 06:22:21;;;;;;;48.85;26.35;;;;;;;-146.64;100.00;75874.25;5031463;28;20381;-76
2022/03/10 06:24:46;;;;;;;51.83;27.45;;;;;;;-146.64;100.00;76403.06;5044651;28;20025;-76
2022/03/10 06:27:16;;;;;;;49.72;26.63;;;;;;;-146.64;100.00;74552.53;5055852;28;20376;-77
2022/03/10 06:29:42;;;;;;;54.85;27.85;;;;;;;-146.64;100.00;77196.41;5054723;28;20036;-77
2022/03/10 06:32:08;;;;;;;49.50;26.42;;;;;;;-146.64;100.00;75345.50;5042326;28;20033;-77
2022/03/10 06:34:34;;;;;;;53.45;27.65;;;;;;;-146.64;100.00;75081.16;5053336;28;20033;-77
2022/03/10 06:37:00;;;;;;;43.15;22.35;;;;;;;-146.64;100.00;74816.84;5040854;28;20070;-77
2022/03/10 06:39:26;;;;;;;49.90;26.70;;;;;;;-146.64;100.00;75609.88;5048833;28;20037;-76
2022/03/10 06:41:51;;;;;;;54.88;27.80;;;;;;;-146.64;100.00;79048.19;5040203;28;20139;-76
2022/03/10 06:44:17;;;;;;;58.88;28.52;;;;;;;-146.64;100.00;80900.81;5060259;28;20047;-76
2022/03/10 06:46:42;;;;;;;52.55;28.38;;;;;;;-146.64;100.00;81695.03;5036773;28;20033;-76
2022/03/10 06:49:07;;;;;;;57.55;29.20;;;;;;;-146.64;100.00;82489.44;5058057;28;20487;-76
2022/03/10 06:51:33;;;;;;;52.53;29.25;;;;;;;-146.64;100.00;80900.81;5045693;28;20079;-76
2022/03/10 06:53:58;;;;;;;55.50;28.48;;;;;;;-146.64;100.00;80900.81;5046001;28;20031;-76
2022/03/10 06:56:24;;;;;;;54.83;28.48;;;;;;;-146.64;100.00;79312.78;5025107;28;20029;-77
2022/03/10 06:58:49;;;;;;;55.65;29.27;;;;;;;-146.64;100.00;76138.66;5039979;28;20032;-76
2022/03/10 07:01:15;;;;;;;60.55;30.80;;;;;;;-146.64;100.00;72702.84;5053302;28;20064;-76
2022/03/10 07:03:40;;;;;;;53.70;29.23;;;;;;;-146.64;100.00;68214.31;5032961;28;20045;-77
2022/03/10 07:06:06;;;;;;;61.25;29.40;;;;;;;-146.64;100.00;61886.13;5049814;28;20472;-77
2022/03/10 07:08:32;;;;;;;56.30;28.80;;;;;;;-146.64;100.00;57672.94;5059847;28;20024;-77
2022/03/10 07:10:57;;;;;;;52.17;27.23;;;;;;;-146.64;100.00;53858.59;5055726;28;20385;-76
2022/03/10 07:13:23;;;;;;;54.05;27.23;;;;;;;-146.64;100.00;50392.69;5054075;28;20033;-77
2022/03/10 07:15:48;;;;;;;51.13;27.90;;;;;;;-146.64;100.00;46970.84;5048557;28;20029;-77
2022/03/10 07:18:14;;;;;;;49.85;27.13;;;;;;;-146.64;100.00;44642.09;5032915;28;20025;-77
2022/03/10 07:20:39;;;;;;;48.70;26.83;;;;;;;-146.64;100.00;43304.06;5054310;28;20039;-76
2022/03/10 07:23:05;;;;;;;51.80;27.55;;;;;;;-146.64;100.00;42400.72;5049519;28;20404;-77
2022/03/10 07:25:31;;;;;;;57.58;28.75;;;;;;;-146.64;100.00;41728.94;5032504;28;20385;-77
2022/03/10 07:27:56;;;;;;;55.22;28.58;;;;;;;-146.64;100.00;41540.56;5051971;28;20029;-77
2022/03/10 07:30:21;;;;;;;48.60;26.85;;;;;;;-146.64;100.00;41249.78;5053366;28;20446;-77
2022/03/10 07:32:47;;;;;;;54.03;29.10;;;;;;;-146.64;100.00;41206.78;5035507;28;20124;-77
2022/03/10 07:35:12;;;;;;;58.55;29.88;;;;;;;-146.64;100.00;41147.41;5045397;28;20028;-77
2022/03/10 07:37:38;;;;;;;50.50;27.63;;;;;;;-146.64;100.00;40963.13;5036655;28;20121;-77
2022/03/10 07:40:04;;;;;;;53.55;28.60;;;;;;;-146.64;100.00;40938.56;5050922;28;20025;-77
2022/03/10 07:42:29;;;;;;;52.53;29.80;;;;;;;-146.64;100.00;40754.28;5060809;28;20033;-77
2022/03/10 07:44:54;;;;;;;52.60;28.38;;;;;;;-146.64;100.00;40664.22;5034764;28;20027;-77
2022/03/10 07:47:20;;;;;;;46.30;27.88;;;;;;;-146.64;100.00;40631.47;5060083;28;20080;-77
2022/03/10 07:49:45;;;;;;;56.25;28.52;;;;;;;-146.64;100.00;40615.06;5057044;28;20031;-77
2022/03/10 07:52:11;;;;;;;53.60;29.75;;;;;;;-146.64;100.00;40580.28;5055841;28;20052;-77
2022/03/10 07:54:36;;;;;;;50.38;28.52;;;;;;;-146.64;100.00;40475.88;5047311;28;20537;-77
2022/03/10 07:57:02;;;;;;;52.35;28.58;;;;;;;-146.64;100.00;40287.53;5052195;28;20033;-80
2022/03/10 07:59:27;;;;;;;54.38;28.10;;;;;;;-146.64;100.00;40283.44;5049362;28;20159;-78
2022/03/10 08:01:53;;;;;;;50.45;27.55;;;;;;;-146.64;100.00;40193.38;5031418;28;20119;-77
2022/03/10 08:04:19;;;;;;;48.70;28.20;;;;;;;-146.64;100.00;40197.47;5044735;28;20057;-77
2022/03/10 08:06:44;;;;;;;53.40;28.60;;;;;;;-146.64;100.00;40111.47;5052656;28;20029;-77
2022/03/10 08:09:10;;;;;;;54.28;27.55;;;;;;;-146.64;100.00;39986.63;5063221;28;20031;-77
2022/03/10 08:11:39;;;;;;;51.72;27.83;;;;;;;-146.64;100.00;39972.28;5065885;28;20033;-78
2022/03/10 08:14:05;;;;;;;53.50;26.70;;;;;;;-146.64;100.00;39921.13;5035982;28;20032;-77
2022/03/10 08:16:32;;;;;;;53.08;29.52;;;;;;;-146.64;100.00;39906.78;5058904;28;20020;-77
2022/03/10 08:18:58;;;;;;;54.40;28.05;;;;;;;-146.64;100.00;39923.16;5047368;28;20178;-77
2022/03/10 08:21:23;;;;;;;49.60;27.02;;;;;;;-146.64;100.00;39910.88;5040908;28;20100;-77
2022/03/10 08:23:48;;;;;;;49.97;27.15;;;;;;;-146.64;100.00;39902.69;5055965;28;20115;-78
2022/03/10 08:26:14;;;;;;;58.25;28.40;;;;;;;-146.64;100.00;39884.28;5048527;28;20371;-79
2022/03/10 08:28:39;;;;;;;61.38;28.80;;;;;;;-146.64;100.00;39912.94;5035053;28;20606;-77
2022/03/10 08:31:05;;;;;;;50.95;27.65;;;;;;;-146.64;100.00;39865.84;5045195;28;20399;-75
2022/03/10 08:33:33;;;;;;;57.10;29.75;;;;;;;-146.64;100.00;39771.69;5060133;28;20021;-75
2022/03/10 08:35:58;;;;;;;48.78;26.27;;;;;;;-146.64;100.00;39816.72;5031065;28;20021;-75
2022/03/10 08:38:25;;;;;;;56.63;28.42;;;;;;;-146.64;100.00;39751.22;5046716;28;20031;-76
2022/03/10 08:40:51;;;;;;;48.20;27.27;;;;;;;-146.64;100.00;39722.56;5039426;28;20457;-75
2022/03/10 08:43:17;;;;;;;63.90;29.70;;;;;;;-146.64;100.00;39693.91;5047392;28;20116;-76
2022/03/10 08:45:42;;;;;;;56.17;26.85;;;;;;;-146.64;100.00;39591.56;5037512;28;20880;-76
2022/03/10 08:48:08;;;;;;;58.03;26.02;;;;;;;-146.64;100.00;39575.19;5049032;28;20063;-76
2022/03/10 08:50:34;;;;;;;51.45;27.48;;;;;;;-146.64;100.00;39505.63;5054708;28;20040;-76
2022/03/10 08:52:59;;;;;;;58.10;29.15;;;;;;;-146.64;100.00;39468.78;5038887;28;20052;-76
2022/03/10 08:55:25;;;;;;;56.78;27.42;;;;;;;-146.64;100.00;39487.19;5041412;28;20027;-76
2022/03/10 08:57:50;;;;;;;51.05;27.45;;;;;;;-146.64;100.00;39345.97;5047252;28;20029;-76
2022/03/10 09:00:18;;;;;;;52.63;27.70;;;;;;;-146.64;100.00;39436.03;5047490;28;20119;-76
2022/03/10 09:02:44;;;;;;;55.25;27.33;;;;;;;-146.64;100.00;39407.38;5033394;28;20041;-76
2022/03/10 09:05:10;;;;;;;49.97;26.00;;;;;;;-146.64;100.00;39382.81;5045673;28;20079;-76
2022/03/10 09:07:36;;;;;;;53.88;28.08;;;;;;;-146.64;100.00;39366.44;5047786;28;20028;-76
2022/03/10 09:10:04;;;;;;;50.05;26.77;;;;;;;-146.64;100.00;39321.41;5045822;28;20049;-76
2022/03/10 09:12:30;;;;;;;;;;;;;;;-146.64;100.00;39333.69;5049051;28;20067;-76
2022/03/10 09:14:55;;;;;;;50.08;27.58;;;;;;;-146.64;100.00;39251.84;5048805;28;19940;-76
2022/03/10 09:17:20;;;;;;;48.42;26.52;;;;;;;-146.64;100.00;39182.25;5046346;28;20025;-76
2022/03/10 09:19:46;;;;;;;51.97;28.13;;;;;;;-146.64;100.00;39268.19;5045280;28;20041;-76
2022/03/10 09:22:12;;;;;;;53.78;26.70;;;;;;;-146.64;100.00;39243.66;5041242;28;20075;-76
2022/03/10 09:24:38;;;;;;;49.73;26.30;;;;;;;-146.64;100.00;39255.94;5055290;28;20043;-76
2022/03/10 09:27:05;;;;;;;53.55;25.65;;;;;;;-146.64;100.00;39210.91;5050859;28;20677;-76
2022/03/10 09:29:30;;;;;;;;;;;;;;;-146.64;100.00;39194.53;5039968;28;20025;-76
2022/03/10 09:31:56;;;;;;;45.40;25.80;;;;;;;-146.64;100.00;39186.34;5042978;28;20334;-76
2022/03/10 09:34:21;;;;;;;46.88;24.77;;;;;;;-146.64;100.00;39129.03;5023768;28;20555;-76
2022/03/10 09:36:46;;;;;;;40.85;25.75;;;;;;;-146.64;100.00;39129.03;5040235;28;20032;-76
2022/03/10 09:39:13;;;;;;;49.55;26.88;;;;;;;-146.64;100.00;39133.13;5037302;28;20498;-76
2022/03/10 09:41:39;;;;;;;44.22;25.23;;;;;;;-146.64;100.00;39120.84;5040543;28;20025;-75
2022/03/10 09:44:17;;;;;;;42.88;25.98;;;;;;;-146.64;98.72;39018.53;5047039;28;20032;-76
2022/03/10 09:46:44;;;;;;;47.92;26.38;;;;;;;-146.64;96.38;39055.38;5052135;28;20487;-76
2022/03/10 09:49:09;;;;;;;43.35;25.70;;;;;;;-146.64;94.12;39006.25;5062703;28;20077;-76
2022/03/10 09:51:35;;;;;;;42.92;24.92;;;;;;;-146.64;93.25;39030.81;5060390;28;20037;-76
2022/03/10 09:54:00;;;;;;;44.53;25.92;;;;;;;-146.64;91.61;38875.28;5045336;28;20048;-76
2022/03/10 09:56:26;;;;;;;45.13;25.20;;;;;;;-146.64;91.93;38998.06;5034419;28;20041;-77
2022/03/10 09:58:52;;;;;;;50.78;25.05;;;;;;;-146.64;91.79;38981.69;5046516;28;20119;-77
2022/03/10 10:01:17;;;;;;;43.30;25.75;;;;;;;-146.64;92.01;38965.31;5054130;28;20033;-76
2022/03/10 10:03:42;;;;;;;50.78;25.90;;;;;;;-146.64;90.45;38901.88;5060354;28;20565;-76
2022/03/10 10:06:08;;;;;;;44.23;25.60;;;;;;;-146.64;87.02;38887.56;5028800;28;20029;-76
2022/03/10 10:08:38;;;;;;;42.43;25.37;;;;;;;-146.64;86.52;38891.66;5048585;28;20056;-76
2022/03/10 10:11:04;;;;;;;39.95;25.20;;;;;;;-146.64;83.93;38871.19;5027240;28;20029;-76
2022/03/10 10:13:39;;;;;;;46.20;24.90;;;;;;;-146.64;83.06;38822.06;5047695;28;20031;-76
2022/03/10 10:16:07;;;;;;;42.50;24.10;;;;;;;-146.64;82.31;38809.78;5043717;28;20021;-76
2022/03/10 10:18:35;;;;;;;40.55;25.23;;;;;;;-146.64;79.57;38789.34;5027713;28;20025;-76
2022/03/10 10:21:02;;;;;;;41.42;23.50;;;;;;;-146.64;81.41;38834.34;5030773;28;20090;-76
2022/03/10 10:23:29;;;;;;;42.17;24.40;;;;;;;-146.64;78.10;38770.91;5065832;28;20056;-76
2022/03/10 10:26:04;;;;;;;47.50;24.70;;;;;;;-146.64;78.51;38766.81;5030605;28;20452;-76
2022/03/10 10:28:34;;;;;;;39.72;22.77;;;;;;;-146.64;77.29;38781.16;5034238;28;20101;-77
2022/03/10 10:31:02;;;;;;;42.35;24.17;;;;;;;-146.64;76.74;38719.75;5032468;28;20028;-77
2022/03/10 10:33:30;;;;;;;38.00;22.65;;;;;;;-146.64;73.71;38707.47;5052033;28;20028;-77
2022/03/10 10:36:15;;;;;;;39.67;23.25;;;;;;;-146.64;74.52;38670.66;5049654;28;20029;-76
2022/03/10 10:38:41;;;;;;;40.88;22.95;;;;;;;-146.64;71.31;38689.06;5049828;28;20392;-76
2022/03/10 10:41:14;;;;;;;40.83;24.50;;;;;;;-146.64;69.72;38601.06;5049219;28;20028;-76
2022/03/10 10:43:41;;;;;;;38.17;23.55;;;;;;;-146.64;66.95;38623.59;5051148;28;20033;-76
2022/03/10 10:46:06;;;;;;;;;;;;;;;-146.64;68.27;38627.69;5051440;28;20302;-76
2022/03/10 10:48:44;;;;;;;41.63;23.58;;;;;;;-146.64;65.66;38613.34;5050093;28;20364;-76
2022/03/10 10:51:10;;;;;;;41.70;22.98;;;;;;;-146.64;66.84;38605.16;5053511;28;20036;-76
2022/03/10 10:53:39;;;;;;;38.27;22.53;;;;;;;-146.64;65.64;38601.06;5053222;28;20227;-76
2022/03/10 10:56:04;;;;;;;38.30;23.45;;;;;;;-146.64;62.64;38580.63;5046991;28;20115;-76
2022/03/10 10:58:30;;;;;;;46.20;22.80;;;;;;;-146.64;63.40;38566.28;5040198;28;20139;-76